Gypsum, KS (67448)

5:42 AM CST on February 11, 2016 (GMT -0600)
Lehmann's Back Yard | | Change Station
CLOSE
Current Station
Personal Weather Station
Location: Salina, KS
Elevation: 1243 ft
Nearby Weather Stations

Elev 1243 ft 38.80 °N, 97.59 °W | Updated 2 minutes ago

Overcast
Overcast
27.3 °F
Feels Like 20 °F
N
7.3
Wind Variable Wind from ENE

Today
High -- | Low -- °F
--% Chance of Precip.
Yesterday
High -- | Low -- °F
Precip. -- in
Pressure 30.20 in
Visibility 10.0 miles
Clouds Overcast 900 ft
Windchill 20 °F
Dew Point 22 °F
Humidity 81%
Rainfall 0.00 in
Snow Depth Not available.
7:25 AM 6:02 PM
Waxing Crescent, 11% visible
SPECI KSLN 111105Z AUTO 02011KT 10SM OVC009 M02/M05 A3020 RMK AO2 T10171050
Pressure 30.20 in
Visibility 10.0 miles
Clouds Overcast 900 ft
Windchill 20 °F
Dew Point 22 °F
Humidity 81%
Rainfall 0.00 in
Snow Depth Not available.
7:25 AM 6:02 PM
Waxing Crescent, 11% visible
SPECI KSLN 111105Z AUTO 02011KT 10SM OVC009 M02/M05 A3020 RMK AO2 T10171050

10-Day Weather Forecast

Almanac

Astronomy

Feb. 11, 2016 Rise Set
Actual Time
Civil Twilight
Nautical Twilight
Astronomical Twilight
Moon
Length of Visible Light
Length of Day
Tomorrow will be .
, % of the Moon is Illuminated

Today's Extremes

State Highs State Lows

Community

WunderPhotos

Upload Photos

1,892,030 photos uploaded!

WunderBlog® & News

Nearby

Air Quality

  Air Quality AQ Index Pollutant
Not available.

Snow Depth

Station Depth Elevation

Earthquake Activity

City Distance Mag. Time & Date
Minimum magnitude displayed is 2.5.

Coastal Water Temperatures

Place Temperature

Stations

Nearby Weather Stations

Station Location Temp. Windchill Dew Point Humidity Wind Precip. Elev Updated Type
                   

Watches & Warnings

There are currently no watches in effect.